createdAt,value
2022-10-02T04:30:59.896Z,99.99
2022-10-02T04:31:59.891Z,99.99
2022-10-02T04:32:59.854Z,99.99
2022-10-02T04:33:59.842Z,99.99
2022-10-02T04:34:59.842Z,99.99
2022-10-02T04:35:59.816Z,99.99
2022-10-02T04:36:59.804Z,99.99
2022-10-02T04:37:59.784Z,99.99
2022-10-02T04:38:59.775Z,99.99
2022-10-02T04:39:59.764Z,99.99
2022-10-02T04:40:59.744Z,99.99
2022-10-02T04:41:59.732Z,99.99
2022-10-02T04:42:59.724Z,99.99
2022-10-02T04:43:59.703Z,99.99
2022-10-02T04:44:59.705Z,99.99
2022-10-02T04:45:59.697Z,99.99
2022-10-02T04:46:59.666Z,99.99
2022-10-02T04:48:06.726Z,99.99
2022-10-02T04:48:59.675Z,99.99
2022-10-02T04:49:59.635Z,99.99
2022-10-02T04:50:59.617Z,99.99
2022-10-02T04:51:59.606Z,99.99
2022-10-02T04:52:59.595Z,99.99
2022-10-02T04:53:59.584Z,99.99
2022-10-02T04:54:59.565Z,99.99
2022-10-02T04:55:59.602Z,99.99
2022-10-02T04:56:59.535Z,99.99
2022-10-02T04:57:59.524Z,99.99
2022-10-02T04:58:59.532Z,99.99
2022-10-02T04:59:59.507Z,99.99
2022-10-02T05:00:59.525Z,99.99
2022-10-02T05:01:59.509Z,99.99
2022-10-02T05:02:59.455Z,99.99
2022-10-02T05:04:03.776Z,99.99
2022-10-02T05:04:59.567Z,99.99
2022-10-02T05:05:59.435Z,99.99
2022-10-02T05:06:59.405Z,99.99
2022-10-02T05:07:59.385Z,99.99
2022-10-02T05:08:59.387Z,99.99
2022-10-02T05:09:59.364Z,99.99
2022-10-02T05:10:59.372Z,99.99
2022-10-02T05:11:59.332Z,99.99
2022-10-02T05:12:59.325Z,99.99
2022-10-02T05:13:59.301Z,99.99
2022-10-02T05:14:59.302Z,99.99
2022-10-02T05:15:59.310Z,99.99
2022-10-02T05:16:59.273Z,99.99
2022-10-02T05:17:59.253Z,99.99
2022-10-02T05:18:59.243Z,99.99
2022-10-02T05:19:59.226Z,99.99
2022-10-02T05:20:59.242Z,99.99
2022-10-02T05:21:59.203Z,99.99
2022-10-02T05:22:59.192Z,99.99
2022-10-02T05:23:59.171Z,99.99
2022-10-02T05:24:59.171Z,99.99
2022-10-02T05:25:59.153Z,99.99
2022-10-02T05:26:59.133Z,99.99
2022-10-02T05:27:59.173Z,99.99
2022-10-02T05:28:59.112Z,99.99
2022-10-02T05:29:59.100Z,99.99
2022-10-02T05:30:59.095Z,99.99
2022-10-02T05:31:59.072Z,99.99
2022-10-02T05:32:59.053Z,99.99
2022-10-02T05:33:59.046Z,99.99
2022-10-02T05:34:59.051Z,99.99
2022-10-02T05:35:59.021Z,99.99
2022-10-02T05:36:59.002Z,99.99
2022-10-02T05:37:59.212Z,99.99
2022-10-02T05:38:58.982Z,99.99
2022-10-02T05:39:58.971Z,99.99
2022-10-02T05:40:58.971Z,99.99
2022-10-02T05:41:58.942Z,99.99
2022-10-02T05:42:58.921Z,99.99
2022-10-02T05:43:58.901Z,99.99
2022-10-02T05:44:59.092Z,99.99
2022-10-02T05:45:58.963Z,99.99
2022-10-02T05:46:59.011Z,99.99
2022-10-02T05:47:58.852Z,99.99
2022-10-02T05:48:58.840Z,99.99
2022-10-02T05:49:58.844Z,99.99
2022-10-02T05:50:58.840Z,99.99
2022-10-02T05:51:58.800Z,99.99
2022-10-02T05:52:58.794Z,99.99
2022-10-02T05:53:58.778Z,99.99
2022-10-02T05:54:58.780Z,99.99
2022-10-02T05:55:58.761Z,99.99
2022-10-02T05:56:58.739Z,99.99
2022-10-02T05:57:58.720Z,99.99
2022-10-02T05:58:58.720Z,99.99
2022-10-02T05:59:58.780Z,99.99
2022-10-02T06:00:58.729Z,99.99
2022-10-02T06:01:58.704Z,99.99
2022-10-02T06:02:58.690Z,99.99
2022-10-02T06:03:58.640Z,99.99
2022-10-02T06:04:58.661Z,99.99
2022-10-02T06:05:58.629Z,99.99
2022-10-02T06:06:58.609Z,99.99
2022-10-02T06:07:58.589Z,99.99
2022-10-02T06:08:58.590Z,99.99
2022-10-02T06:09:58.559Z,99.99
2022-10-02T06:10:58.567Z,99.99
2022-10-02T06:11:58.539Z,99.99
2022-10-02T06:12:58.558Z,99.99
2022-10-02T06:13:58.508Z,99.99
2022-10-02T06:14:58.498Z,99.99
2022-10-02T06:15:58.612Z,99.99
2022-10-02T06:16:58.479Z,99.99
2022-10-02T06:17:58.468Z,99.99
2022-10-02T06:18:58.458Z,99.99
2022-10-02T06:20:03.026Z,99.99
2022-10-02T06:20:59.429Z,99.99
2022-10-02T06:21:58.406Z,99.99
2022-10-02T06:22:58.428Z,99.99
2022-10-02T06:23:58.379Z,99.99
2022-10-02T06:24:58.367Z,99.99
2022-10-02T06:25:58.458Z,99.99
2022-10-02T06:26:58.357Z,99.99
2022-10-02T06:27:58.376Z,99.99
2022-10-02T06:28:58.317Z,99.99
2022-10-02T06:29:58.358Z,99.99
2022-10-02T06:30:58.297Z,99.99
2022-10-02T06:31:58.399Z,99.99
2022-10-02T06:32:58.265Z,99.99
2022-10-02T06:33:58.244Z,99.99
2022-10-02T06:34:58.237Z,99.99
2022-10-02T06:35:58.262Z,99.99
2022-10-02T06:36:58.208Z,99.99
2022-10-02T06:37:58.187Z,99.99
2022-10-02T06:38:58.205Z,99.99
2022-10-02T06:39:58.166Z,99.99
2022-10-02T06:40:58.161Z,99.99
2022-10-02T06:41:58.136Z,99.99
2022-10-02T06:42:58.127Z,99.99
2022-10-02T06:43:58.106Z,99.99
2022-10-02T06:44:58.097Z,99.99
2022-10-02T06:45:58.126Z,99.99
2022-10-02T06:46:58.075Z,99.99
2022-10-02T06:47:58.055Z,99.99
2022-10-02T06:48:58.047Z,99.99
2022-10-02T06:49:58.029Z,99.99
2022-10-02T06:50:58.105Z,99.99
2022-10-02T06:51:58.033Z,99.99
2022-10-02T06:52:57.995Z,99.99
2022-10-02T06:53:57.976Z,99.99
2022-10-02T06:54:57.973Z,99.99
2022-10-02T06:55:57.966Z,99.99
2022-10-02T06:56:57.937Z,99.99
2022-10-02T06:57:57.927Z,99.99
2022-10-02T06:58:57.915Z,99.99
2022-10-02T06:59:57.897Z,99.99
2022-10-02T07:00:57.958Z,99.99
2022-10-02T07:01:57.938Z,99.99
2022-10-02T07:02:57.856Z,99.99
2022-10-02T07:03:57.845Z,99.99
2022-10-02T07:04:57.835Z,99.99
2022-10-02T07:05:57.815Z,99.99
2022-10-02T07:06:57.815Z,99.99
2022-10-02T07:07:57.814Z,99.99
2022-10-02T07:08:57.778Z,99.99
2022-10-02T07:09:57.764Z,99.99
2022-10-02T07:10:57.756Z,99.99
2022-10-02T07:11:57.754Z,99.99
2022-10-02T07:12:57.726Z,99.99
2022-10-02T07:13:57.710Z,99.99
2022-10-02T07:14:57.704Z,99.99
2022-10-02T07:15:57.715Z,99.99
2022-10-02T07:16:57.694Z,99.99
2022-10-02T07:17:57.654Z,99.99
2022-10-02T07:18:57.643Z,99.99
2022-10-02T07:19:57.624Z,99.99
2022-10-02T07:20:57.622Z,99.99
2022-10-02T07:21:57.604Z,99.99
2022-10-02T07:22:57.594Z,99.99
2022-10-02T07:24:02.079Z,99.99
2022-10-02T07:24:58.577Z,99.99
2022-10-02T07:25:57.552Z,99.99
2022-10-02T07:26:57.543Z,99.99
2022-10-02T07:27:57.574Z,99.99
2022-10-02T07:28:57.525Z,99.99
2022-10-02T07:29:57.494Z,99.99
2022-10-02T07:30:57.483Z,99.99
2022-10-02T07:31:57.509Z,99.99
2022-10-02T07:32:57.466Z,99.99
2022-10-02T07:33:57.444Z,99.99
2022-10-02T07:34:57.436Z,99.99
2022-10-02T07:35:57.413Z,99.99
2022-10-02T07:36:57.445Z,99.69
2022-10-02T07:37:57.387Z,99.79
2022-10-02T07:38:57.404Z,99.79
2022-10-02T07:39:57.364Z,99.69
2022-10-02T07:40:59.992Z,99.79
2022-10-02T07:41:57.354Z,99.58
2022-10-02T07:42:57.324Z,99.38
2022-10-02T07:43:57.372Z,99.38
2022-10-02T07:44:57.301Z,99.33
2022-10-02T07:45:57.325Z,99.44
2022-10-02T07:46:57.282Z,99.33
2022-10-02T07:47:57.264Z,99.24
2022-10-02T07:48:57.248Z,98.63
2022-10-02T07:49:57.235Z,98.68
2022-10-02T07:50:57.212Z,98.52
2022-10-02T07:51:57.222Z,98.68
2022-10-02T07:52:57.192Z,98.43
2022-10-02T07:53:57.184Z,98.28
2022-10-02T07:54:57.162Z,97.97
2022-10-02T07:55:57.151Z,97.52
2022-10-02T07:56:57.171Z,97.42
2022-10-02T07:57:57.132Z,97.02
2022-10-02T07:58:57.113Z,96.81
2022-10-02T07:59:57.111Z,96.77
2022-10-02T08:00:57.082Z,96.46
2022-10-02T08:01:57.180Z,96.26
2022-10-02T08:02:57.142Z,96.46
2022-10-02T08:03:57.051Z,96.22
2022-10-02T08:04:57.040Z,95.81
2022-10-02T08:05:57.031Z,95.56
2022-10-02T08:06:57.013Z,95.06
2022-10-02T08:07:57.011Z,94.75
2022-10-02T08:08:56.982Z,94.79
2022-10-02T08:09:56.974Z,94.85
2022-10-02T08:10:56.953Z,95.06
2022-10-02T08:11:56.950Z,94.85
2022-10-02T08:12:56.942Z,94.85
2022-10-02T08:13:56.921Z,94.75
2022-10-02T08:14:56.909Z,94.59
2022-10-02T08:15:56.944Z,94.79
2022-10-02T08:16:56.907Z,95.45
2022-10-02T08:17:58.793Z,95.75
2022-10-02T08:18:57.842Z,95.65
2022-10-02T08:19:56.862Z,96.06
2022-10-02T08:20:56.830Z,95.61
2022-10-02T08:21:56.811Z,95.71
2022-10-02T08:22:56.811Z,95.55
2022-10-02T08:23:56.795Z,95.45
2022-10-02T08:24:56.771Z,95.14
2022-10-02T08:25:56.771Z,95.45
2022-10-02T08:26:56.743Z,95.75
2022-10-02T08:27:56.800Z,95.95
2022-10-02T08:28:56.749Z,95.95
2022-10-02T08:29:56.711Z,96.15
2022-10-02T08:30:56.692Z,95.65
2022-10-02T08:31:56.748Z,95.50
2022-10-02T08:32:56.668Z,94.70
2022-10-02T08:33:56.650Z,94.70
2022-10-02T08:34:56.660Z,94.70
2022-10-02T08:35:56.629Z,93.99
2022-10-02T08:36:56.620Z,94.23
2022-10-02T08:37:56.602Z,94.03
2022-10-02T08:38:56.580Z,94.43
2022-10-02T08:39:56.570Z,94.54
2022-10-02T08:40:56.569Z,94.64
2022-10-02T08:41:56.561Z,94.39
2022-10-02T08:42:56.560Z,94.49
2022-10-02T08:43:56.522Z,93.43
2022-10-02T08:44:56.508Z,93.33
2022-10-02T08:45:56.544Z,93.08
2022-10-02T08:46:56.501Z,93.04
2022-10-02T08:47:56.470Z,92.40
2022-10-02T08:48:56.467Z,91.08
2022-10-02T08:49:56.461Z,90.41
2022-10-02T08:50:56.429Z,90.96
2022-10-02T08:51:56.415Z,91.77
2022-10-02T08:52:56.418Z,92.08
2022-10-02T08:53:56.390Z,91.87
2022-10-02T08:54:56.369Z,91.97
2022-10-02T08:55:56.361Z,92.38
2022-10-02T08:56:56.349Z,91.37
2022-10-02T08:57:56.338Z,91.67
2022-10-02T08:58:56.319Z,91.77
2022-10-02T08:59:56.320Z,91.97
2022-10-02T09:00:56.367Z,92.03
2022-10-02T09:01:59.786Z,90.72
2022-10-02T09:02:56.279Z,90.72
2022-10-02T09:03:56.259Z,90.62
2022-10-02T09:04:56.239Z,89.76
2022-10-02T09:05:56.221Z,88.96
2022-10-02T09:06:56.217Z,89.26
2022-10-02T09:07:56.211Z,89.16
2022-10-02T09:08:56.190Z,88.65
2022-10-02T09:09:56.169Z,88.21
2022-10-02T09:10:56.170Z,88.01
2022-10-02T09:11:56.141Z,87.62
2022-10-02T09:12:56.150Z,86.95
2022-10-02T09:13:56.242Z,86.30
2022-10-02T09:14:58.947Z,86.27
2022-10-02T09:15:56.147Z,85.05
2022-10-02T09:16:56.110Z,85.50
2022-10-02T09:17:56.111Z,85.84
2022-10-02T09:18:56.059Z,87.70
2022-10-02T09:19:56.049Z,87.81
2022-10-02T09:20:56.050Z,88.31
2022-10-02T09:21:56.171Z,88.65
2022-10-02T09:22:56.025Z,88.55
2022-10-02T09:23:56.035Z,89.10
2022-10-02T09:24:55.980Z,89.26
2022-10-02T09:25:55.959Z,88.75
2022-10-02T09:26:55.960Z,89.16
2022-10-02T09:27:56.013Z,88.51
2022-10-02T09:28:55.926Z,87.40
2022-10-02T09:29:55.910Z,87.90
2022-10-02T09:30:55.900Z,87.84
2022-10-02T09:31:55.962Z,88.45
2022-10-02T09:32:55.889Z,88.55
2022-10-02T09:33:55.856Z,89.06
2022-10-02T09:34:55.847Z,89.32
2022-10-02T09:35:55.833Z,88.55
2022-10-02T09:36:55.819Z,88.71
2022-10-02T09:37:55.809Z,88.92
2022-10-02T09:38:55.796Z,86.59
2022-10-02T09:39:55.777Z,88.01
2022-10-02T09:40:55.769Z,88.55
2022-10-02T09:41:55.747Z,88.65
2022-10-02T09:42:55.757Z,88.90
2022-10-02T09:43:55.718Z,89.20
2022-10-02T09:44:59.196Z,89.40
2022-10-02T09:45:56.761Z,89.66
2022-10-02T09:46:55.689Z,88.55
2022-10-02T09:47:55.688Z,87.60
2022-10-02T09:48:55.658Z,87.81
2022-10-02T09:49:55.638Z,88.01
2022-10-02T09:50:55.638Z,88.15
2022-10-02T09:51:55.619Z,88.75
2022-10-02T09:52:55.626Z,88.45
2022-10-02T09:53:55.589Z,88.25
2022-10-02T09:54:55.578Z,88.70
2022-10-02T09:55:55.568Z,88.79
2022-10-02T09:56:55.602Z,89.20
2022-10-02T09:57:55.538Z,88.59
2022-10-02T09:58:55.547Z,87.81
2022-10-02T09:59:55.522Z,86.79
2022-10-02T10:00:55.544Z,85.88
2022-10-02T10:01:55.563Z,84.93
2022-10-02T10:02:55.478Z,85.50
2022-10-02T10:03:55.489Z,83.80
2022-10-02T10:05:05.690Z,83.34
2022-10-02T10:05:56.428Z,83.91
2022-10-02T10:06:55.440Z,80.88
2022-10-02T10:07:55.407Z,79.86
2022-10-02T10:08:55.418Z,78.07
2022-10-02T10:09:55.380Z,79.36
2022-10-02T10:10:55.369Z,80.20
2022-10-02T10:11:55.356Z,80.10
2022-10-02T10:12:55.338Z,79.32
2022-10-02T10:13:55.339Z,78.60
2022-10-02T10:14:55.319Z,76.45
2022-10-02T10:15:55.298Z,74.58
2022-10-02T10:16:55.288Z,74.95
2022-10-02T10:17:55.278Z,74.92
2022-10-02T10:18:55.309Z,74.95
2022-10-02T10:19:55.276Z,74.88
2022-10-02T10:20:55.240Z,75.09
2022-10-02T10:21:55.221Z,75.72
2022-10-02T10:22:55.217Z,75.68
2022-10-02T10:23:55.198Z,74.44
2022-10-02T10:24:55.298Z,74.91
2022-10-02T10:25:55.166Z,72.77
2022-10-02T10:26:55.158Z,71.26
2022-10-02T10:27:55.185Z,73.14
2022-10-02T10:28:55.148Z,73.74
2022-10-02T10:29:55.118Z,73.54
2022-10-02T10:30:55.107Z,73.07
2022-10-02T10:31:55.111Z,72.47
2022-10-02T10:32:55.079Z,72.09
2022-10-02T10:33:55.079Z,69.93
2022-10-02T10:34:55.058Z,69.53
2022-10-02T10:35:55.037Z,67.66
2022-10-02T10:36:55.029Z,64.70
2022-10-02T10:37:55.009Z,64.36
2022-10-02T10:38:55.010Z,64.06
2022-10-02T10:39:54.979Z,64.76
2022-10-02T10:40:54.969Z,65.12
2022-10-02T10:41:54.948Z,65.72
2022-10-02T10:43:08.903Z,68.08
2022-10-02T10:43:55.939Z,71.40
2022-10-02T10:44:54.920Z,72.84
2022-10-02T10:45:54.935Z,73.72
2022-10-02T10:46:55.130Z,75.96
2022-10-02T10:47:54.869Z,75.87
2022-10-02T10:48:54.879Z,76.67
2022-10-02T10:49:54.859Z,77.17
2022-10-02T10:50:54.839Z,77.08
2022-10-02T10:51:54.829Z,76.81
2022-10-02T10:52:54.807Z,78.08
2022-10-02T10:53:59.567Z,77.55
2022-10-02T10:54:55.778Z,77.38
2022-10-02T10:55:54.770Z,78.52
2022-10-02T10:56:54.761Z,78.32
2022-10-02T10:57:54.749Z,78.22
2022-10-02T10:58:54.749Z,78.46
2022-10-02T10:59:54.737Z,78.66
2022-10-02T11:00:54.777Z,78.59
2022-10-02T11:01:54.905Z,78.19
2022-10-02T11:02:54.859Z,78.70
2022-10-02T11:03:54.659Z,79.50
2022-10-02T11:04:54.668Z,79.30
2022-10-02T11:05:54.639Z,78.80
2022-10-02T11:06:54.619Z,79.41
2022-10-02T11:07:54.609Z,79.47
2022-10-02T11:08:54.609Z,77.92
2022-10-02T11:09:54.589Z,75.43
2022-10-02T11:10:54.577Z,72.00
2022-10-02T11:11:54.559Z,68.02
2022-10-02T11:12:54.559Z,67.11
2022-10-02T11:13:54.564Z,67.98
2022-10-02T11:14:54.529Z,69.35
2022-10-02T11:15:54.511Z,71.33
2022-10-02T11:16:54.538Z,72.47
2022-10-02T11:17:54.543Z,72.61
2022-10-02T11:18:54.518Z,73.18
2022-10-02T11:19:54.487Z,71.16
2022-10-02T11:20:54.447Z,70.86
2022-10-02T11:21:54.450Z,70.79
2022-10-02T11:22:54.411Z,70.43
2022-10-02T11:23:54.498Z,69.76
2022-10-02T11:24:54.380Z,69.79
2022-10-02T11:25:54.371Z,70.32
2022-10-02T11:26:54.363Z,71.56
2022-10-02T11:27:54.385Z,71.87
2022-10-02T11:28:54.339Z,70.50
2022-10-02T11:29:54.334Z,66.68
2022-10-02T11:30:54.313Z,65.15
2022-10-02T11:31:54.431Z,63.64
2022-10-02T11:32:54.282Z,63.95
2022-10-02T11:33:54.270Z,63.92
2022-10-02T11:34:54.261Z,64.45
2022-10-02T11:35:54.249Z,65.28
2022-10-02T11:36:54.258Z,65.44
2022-10-02T11:37:54.250Z,66.05
2022-10-02T11:38:54.203Z,66.47
2022-10-02T11:39:54.201Z,67.51
2022-10-02T11:40:54.179Z,68.25
2022-10-02T11:41:54.169Z,69.99
2022-10-02T11:42:54.152Z,69.76
2022-10-02T11:43:54.138Z,67.61
2022-10-02T11:44:54.162Z,67.01
2022-10-02T11:45:54.276Z,67.04
2022-10-02T11:46:54.092Z,67.78
2022-10-02T11:47:54.082Z,68.02
2022-10-02T11:48:54.071Z,67.24
2022-10-02T11:49:54.061Z,66.84
2022-10-02T11:50:54.042Z,67.18
2022-10-02T11:51:54.030Z,67.38
2022-10-02T11:52:54.031Z,65.36
2022-10-02T11:53:54.011Z,66.91
2022-10-02T11:54:53.992Z,67.03
2022-10-02T11:55:53.989Z,68.65
2022-10-02T11:56:53.966Z,69.59
2022-10-02T11:57:53.953Z,69.42
2022-10-02T11:58:53.954Z,68.31
2022-10-02T11:59:53.926Z,69.21
2022-10-02T12:00:53.905Z,70.73
2022-10-02T12:01:54.008Z,68.65
2022-10-02T12:02:54.029Z,69.55
2022-10-02T12:03:53.887Z,70.66
2022-10-02T12:04:53.852Z,70.97
2022-10-02T12:05:53.853Z,70.66
2022-10-02T12:06:53.822Z,71.67
2022-10-02T12:07:53.822Z,72.07
2022-10-02T12:08:53.852Z,70.76
2022-10-02T12:09:53.794Z,66.85
2022-10-02T12:10:53.796Z,65.28
2022-10-02T12:11:53.771Z,61.26
2022-10-02T12:12:53.757Z,58.75
2022-10-02T12:13:53.771Z,57.75
2022-10-02T12:14:53.813Z,56.87
2022-10-02T12:15:53.812Z,57.52
2022-10-02T12:16:53.862Z,58.65
2022-10-02T12:17:53.714Z,60.86
2022-10-02T12:18:53.691Z,63.45
2022-10-02T12:19:53.672Z,65.12
2022-10-02T12:20:53.654Z,64.22
2022-10-02T12:21:53.654Z,64.22
2022-10-02T12:22:53.646Z,65.88
2022-10-02T12:23:53.664Z,66.55
2022-10-02T12:24:55.000Z,66.28
2022-10-02T12:25:53.600Z,65.38
2022-10-02T12:26:53.644Z,63.15
2022-10-02T12:27:53.765Z,60.83
2022-10-02T12:28:53.577Z,57.68
2022-10-02T12:29:53.550Z,57.93
2022-10-02T12:30:53.545Z,59.95
2022-10-02T12:31:53.660Z,61.81
2022-10-02T12:32:53.647Z,61.45
2022-10-02T12:33:56.654Z,60.10
2022-10-02T12:34:53.486Z,59.15
2022-10-02T12:35:53.476Z,60.28
2022-10-02T12:36:53.475Z,61.07
2022-10-02T12:37:53.517Z,62.33
2022-10-02T12:38:53.495Z,63.39
2022-10-02T12:39:53.474Z,62.53
2022-10-02T12:40:53.472Z,60.49
2022-10-02T12:41:53.396Z,60.75
2022-10-02T12:42:53.376Z,61.58
2022-10-02T12:43:53.365Z,62.62
2022-10-02T12:44:53.455Z,62.88
2022-10-02T12:45:53.343Z,64.22
2022-10-02T12:46:53.535Z,65.36
2022-10-02T12:47:53.294Z,65.66
2022-10-02T12:48:53.295Z,66.47
2022-10-02T12:49:53.265Z,66.30
2022-10-02T12:50:53.254Z,65.99
2022-10-02T12:51:53.245Z,66.93
2022-10-02T12:52:53.275Z,67.47
2022-10-02T12:53:53.245Z,67.67
2022-10-02T12:54:53.206Z,68.17
2022-10-02T12:55:53.184Z,68.27
2022-10-02T12:56:53.177Z,68.14
2022-10-02T12:57:53.172Z,68.34
2022-10-02T12:58:53.156Z,66.56
2022-10-02T12:59:53.142Z,65.73
2022-10-02T13:00:53.177Z,65.09
2022-10-02T13:01:53.169Z,64.36
2022-10-02T13:03:01.657Z,63.70
2022-10-02T13:03:54.085Z,65.73
2022-10-02T13:04:53.075Z,64.06
2022-10-02T13:05:53.056Z,65.39
2022-10-02T13:06:53.036Z,66.40
2022-10-02T13:07:53.028Z,66.53
2022-10-02T13:08:53.036Z,66.30
2022-10-02T13:09:53.007Z,64.84
2022-10-02T13:10:52.991Z,62.83
2022-10-02T13:11:55.906Z,63.23
2022-10-02T13:12:52.998Z,61.41
2022-10-02T13:13:53.004Z,58.80
2022-10-02T13:14:52.983Z,57.04
2022-10-02T13:15:52.945Z,55.62
2022-10-02T13:16:53.079Z,54.59
2022-10-02T13:17:52.900Z,54.46
2022-10-02T13:18:52.897Z,54.36
2022-10-02T13:19:52.866Z,54.66
2022-10-02T13:20:52.888Z,54.79
2022-10-02T13:21:52.837Z,55.41
2022-10-02T13:22:52.835Z,56.16
2022-10-02T13:23:52.830Z,58.28
2022-10-02T13:24:52.817Z,60.64
2022-10-02T13:25:52.798Z,62.80
2022-10-02T13:26:52.788Z,62.53
2022-10-02T13:27:52.800Z,63.93
2022-10-02T13:28:52.767Z,62.94
2022-10-02T13:29:52.747Z,62.31
2022-10-02T13:30:52.728Z,60.92
2022-10-02T13:31:52.781Z,59.36
2022-10-02T13:32:52.698Z,60.15
2022-10-02T13:33:52.689Z,62.57
2022-10-02T13:34:52.689Z,64.57
2022-10-02T13:35:52.670Z,66.47
2022-10-02T13:36:52.671Z,68.01
2022-10-02T13:37:52.636Z,68.88
2022-10-02T13:38:52.639Z,70.09
2022-10-02T13:39:52.635Z,70.62
2022-10-02T13:40:52.599Z,70.73
2022-10-02T13:41:52.588Z,71.47
2022-10-02T13:42:52.612Z,71.97
2022-10-02T13:43:55.291Z,71.73
2022-10-02T13:44:53.589Z,70.73
2022-10-02T13:45:52.576Z,66.11
2022-10-02T13:46:52.579Z,62.75
2022-10-02T13:47:52.509Z,60.19
2022-10-02T13:48:52.560Z,60.02
2022-10-02T13:49:52.481Z,60.98
2022-10-02T13:50:52.470Z,60.55
2022-10-02T13:51:52.460Z,58.32
2022-10-02T13:52:52.439Z,59.28
2022-10-02T13:53:52.451Z,58.78
2022-10-02T13:54:52.460Z,57.46
2022-10-02T13:55:52.410Z,59.95
2022-10-02T13:56:52.391Z,60.71
2022-10-02T13:57:52.380Z,60.96
2022-10-02T13:58:52.372Z,61.58
2022-10-02T13:59:52.355Z,61.74
2022-10-02T14:00:52.390Z,62.35
2022-10-02T14:01:52.342Z,59.65
2022-10-02T14:02:52.331Z,56.28
2022-10-02T14:03:52.428Z,55.25
2022-10-02T14:04:52.285Z,54.72
2022-10-02T14:05:57.085Z,53.97
2022-10-02T14:06:53.261Z,53.77
2022-10-02T14:07:52.273Z,52.44
2022-10-02T14:08:52.262Z,52.42
2022-10-02T14:09:52.231Z,52.72
2022-10-02T14:10:52.413Z,52.32
2022-10-02T14:11:52.212Z,53.24
2022-10-02T14:12:52.182Z,53.19
2022-10-02T14:13:52.193Z,52.77
2022-10-02T14:14:52.158Z,52.64
2022-10-02T14:15:52.161Z,51.94
2022-10-02T14:16:52.651Z,52.55
2022-10-02T14:17:52.142Z,53.54
2022-10-02T14:18:52.125Z,52.19
2022-10-02T14:19:52.124Z,54.44
2022-10-02T14:20:52.103Z,54.24
2022-10-02T14:21:52.096Z,54.35
2022-10-02T14:22:52.055Z,55.77
2022-10-02T14:23:52.063Z,56.52
2022-10-02T14:24:52.039Z,57.10
2022-10-02T14:25:53.024Z,58.07
2022-10-02T14:26:52.017Z,58.28
2022-10-02T14:27:52.036Z,58.25
2022-10-02T14:28:52.017Z,56.65
2022-10-02T14:29:51.973Z,56.35
2022-10-02T14:30:51.959Z,57.57
2022-10-02T14:31:52.007Z,57.95
2022-10-02T14:32:51.925Z,57.95
2022-10-02T14:33:51.947Z,57.28
2022-10-02T14:34:51.914Z,57.00
2022-10-02T14:35:51.896Z,57.03
2022-10-02T14:36:51.888Z,57.15
2022-10-02T14:37:51.867Z,55.43
2022-10-02T14:38:51.856Z,56.05
2022-10-02T14:39:51.856Z,55.28
2022-10-02T14:40:51.828Z,56.41
2022-10-02T14:41:51.848Z,56.51
2022-10-02T14:42:51.798Z,55.20
2022-10-02T14:43:51.806Z,55.71
2022-10-02T14:44:51.797Z,56.61
2022-10-02T14:45:51.849Z,57.24
2022-10-02T14:46:51.758Z,56.34
2022-10-02T14:47:51.747Z,56.13
2022-10-02T14:48:51.726Z,56.43
2022-10-02T14:49:51.735Z,56.69
2022-10-02T14:50:51.698Z,58.73
2022-10-02T14:51:51.688Z,58.65
2022-10-02T14:52:51.677Z,59.36
2022-10-02T14:53:51.668Z,60.42
2022-10-02T14:54:51.658Z,60.83
2022-10-02T14:55:51.638Z,62.04
2022-10-02T14:56:51.628Z,62.16
2022-10-02T14:57:51.617Z,63.78
2022-10-02T14:58:51.597Z,62.57
2022-10-02T14:59:51.598Z,62.44
2022-10-02T15:00:51.641Z,62.30
2022-10-02T15:01:51.559Z,62.71
2022-10-02T15:02:51.547Z,63.95
2022-10-02T15:03:51.745Z,64.78
2022-10-02T15:04:51.547Z,65.59
2022-10-02T15:05:51.670Z,65.39
2022-10-02T15:06:51.488Z,65.39
2022-10-02T15:07:51.488Z,66.02
2022-10-02T15:08:51.473Z,66.33
2022-10-02T15:09:51.469Z,66.96
2022-10-02T15:10:51.440Z,67.27
2022-10-02T15:11:51.440Z,67.67
2022-10-02T15:12:51.409Z,66.96
2022-10-02T15:13:51.418Z,67.47
2022-10-02T15:14:51.399Z,67.30
2022-10-02T15:15:51.396Z,67.60
2022-10-02T15:16:51.360Z,67.30
2022-10-02T15:17:51.489Z,67.90
2022-10-02T15:18:51.339Z,68.51
2022-10-02T15:19:51.338Z,68.30
2022-10-02T15:20:51.312Z,66.79
2022-10-02T15:21:51.299Z,67.40
2022-10-02T15:22:51.407Z,67.50
2022-10-02T15:23:51.269Z,67.50
2022-10-02T15:24:51.264Z,67.19
2022-10-02T15:25:51.248Z,67.90
2022-10-02T15:26:51.219Z,67.07
2022-10-02T15:27:51.357Z,66.70
2022-10-02T15:28:51.226Z,64.86
2022-10-02T15:29:51.209Z,65.56
2022-10-02T15:30:51.169Z,64.59
2022-10-02T15:31:51.189Z,62.82
2022-10-02T15:32:51.150Z,60.45
2022-10-02T15:33:51.139Z,59.72
2022-10-02T15:34:51.129Z,59.82
2022-10-02T15:35:51.138Z,59.89
2022-10-02T15:36:51.089Z,58.76
2022-10-02T15:37:51.092Z,58.43
2022-10-02T15:38:51.068Z,57.53
2022-10-02T15:39:51.071Z,57.53
2022-10-02T15:40:51.039Z,56.70
2022-10-02T15:41:51.040Z,56.48
2022-10-02T15:42:53.195Z,56.77
2022-10-02T15:43:52.009Z,56.48
2022-10-02T15:44:50.990Z,55.94
2022-10-02T15:45:51.058Z,54.94
2022-10-02T15:46:50.967Z,54.94
2022-10-02T15:47:50.951Z,56.30
2022-10-02T15:48:52.605Z,56.07
2022-10-02T15:49:50.941Z,56.37
2022-10-02T15:50:50.929Z,55.80
2022-10-02T15:51:50.903Z,56.40
2022-10-02T15:52:50.882Z,56.80
2022-10-02T15:53:50.878Z,56.80
2022-10-02T15:54:50.861Z,56.60
2022-10-02T15:55:50.861Z,56.70
2022-10-02T15:56:50.841Z,56.40
2022-10-02T15:57:50.821Z,56.30
2022-10-02T15:58:50.811Z,56.57
2022-10-02T15:59:50.801Z,56.57
2022-10-02T16:00:50.823Z,55.44
2022-10-02T16:01:50.842Z,55.05
2022-10-02T16:02:50.755Z,55.55
2022-10-02T16:03:50.755Z,55.47
2022-10-02T16:04:50.742Z,57.03
2022-10-02T16:05:50.732Z,57.23
2022-10-02T16:06:50.708Z,58.26
2022-10-02T16:07:50.702Z,59.09
2022-10-02T16:08:50.682Z,58.66
2022-10-02T16:09:50.691Z,58.79
2022-10-02T16:10:50.663Z,58.39
2022-10-02T16:11:50.641Z,58.59
2022-10-02T16:12:50.631Z,59.19
2022-10-02T16:13:50.620Z,58.69
2022-10-02T16:14:50.620Z,58.49
2022-10-02T16:15:50.591Z,59.77
2022-10-02T16:16:50.603Z,58.46
2022-10-02T16:17:50.572Z,58.29
2022-10-02T16:18:50.543Z,59.09
2022-10-02T16:19:50.565Z,59.98
2022-10-02T16:20:50.533Z,60.48
2022-10-02T16:21:50.512Z,61.31
2022-10-02T16:22:50.503Z,61.57
2022-10-02T16:23:50.494Z,64.38
2022-10-02T16:24:50.473Z,66.05
2022-10-02T16:25:50.475Z,67.10
2022-10-02T16:26:50.443Z,67.23
2022-10-02T16:27:50.514Z,67.83
2022-10-02T16:28:50.424Z,68.54
2022-10-02T16:29:50.412Z,68.87
2022-10-02T16:30:50.415Z,69.08
2022-10-02T16:31:50.462Z,69.01
2022-10-02T16:32:50.364Z,69.11
2022-10-02T16:33:50.365Z,68.43
2022-10-02T16:34:50.344Z,69.45
2022-10-02T16:35:50.353Z,69.58
2022-10-02T16:36:50.333Z,68.87
2022-10-02T16:37:50.328Z,69.07
2022-10-02T16:38:50.295Z,69.89
2022-10-02T16:39:50.274Z,69.10
2022-10-02T16:40:50.291Z,69.41
2022-10-02T16:41:50.271Z,69.71
2022-10-02T16:42:50.277Z,69.41
2022-10-02T16:43:50.254Z,70.12
2022-10-02T16:44:50.215Z,69.41
2022-10-02T16:45:50.292Z,69.61
2022-10-02T16:46:50.184Z,70.73
2022-10-02T16:47:50.174Z,70.65
2022-10-02T16:48:50.153Z,71.06
2022-10-02T16:49:50.142Z,71.16
2022-10-02T16:50:50.135Z,71.37
2022-10-02T16:51:50.114Z,71.67
2022-10-02T16:52:50.117Z,71.97
2022-10-02T16:53:50.094Z,72.92
2022-10-02T16:54:50.083Z,72.31
2022-10-02T16:55:50.071Z,72.41
2022-10-02T16:56:50.053Z,73.56
2022-10-02T16:57:50.043Z,73.16
2022-10-02T16:58:50.036Z,73.36
2022-10-02T16:59:50.003Z,73.66
2022-10-02T17:00:50.037Z,72.96
2022-10-02T17:02:13.265Z,72.85
2022-10-02T17:02:51.051Z,72.85
2022-10-02T17:03:49.954Z,73.05
2022-10-02T17:04:49.943Z,73.36
2022-10-02T17:05:49.933Z,72.85
2022-10-02T17:06:49.914Z,73.05
2022-10-02T17:07:49.910Z,73.66
2022-10-02T17:08:49.883Z,73.36
2022-10-02T17:09:49.880Z,74.51
2022-10-02T17:10:49.862Z,73.80
2022-10-02T17:11:49.857Z,73.80
2022-10-02T17:12:49.832Z,75.12
2022-10-02T17:13:49.821Z,74.24
2022-10-02T17:14:49.800Z,74.65
2022-10-02T17:15:49.812Z,75.35
2022-10-02T17:16:49.819Z,75.86
2022-10-02T17:17:49.771Z,76.78
2022-10-02T17:18:49.752Z,75.29
2022-10-02T17:19:49.742Z,75.29
2022-10-02T17:20:49.732Z,76.10
2022-10-02T17:21:49.771Z,75.19
2022-10-02T17:22:49.722Z,76.00